sensor_id;sensor_type;location;lat;lon;timestamp;temperature;humidity
56729;DHT22;42612;52.232;7.560;2023-07-09T00:01:51;29.30;35.40
56729;DHT22;42612;52.232;7.560;2023-07-09T00:04:18;29.30;35.50
56729;DHT22;42612;52.232;7.560;2023-07-09T00:06:44;29.30;35.50
56729;DHT22;42612;52.232;7.560;2023-07-09T00:09:18;29.20;35.60
56729;DHT22;42612;52.232;7.560;2023-07-09T00:11:46;29.20;35.80
56729;DHT22;42612;52.232;7.560;2023-07-09T00:14:14;29.10;35.70
56729;DHT22;42612;52.232;7.560;2023-07-09T00:17:00;29.10;35.80
56729;DHT22;42612;52.232;7.560;2023-07-09T00:19:27;29.10;35.80
56729;DHT22;42612;52.232;7.560;2023-07-09T00:21:54;29.10;35.80
56729;DHT22;42612;52.232;7.560;2023-07-09T00:24:20;29.00;35.70
56729;DHT22;42612;52.232;7.560;2023-07-09T00:26:46;29.00;35.90
56729;DHT22;42612;52.232;7.560;2023-07-09T00:29:16;29.00;36.00
56729;DHT22;42612;52.232;7.560;2023-07-09T00:31:42;29.00;36.20
56729;DHT22;42612;52.232;7.560;2023-07-09T00:34:14;28.90;36.30
56729;DHT22;42612;52.232;7.560;2023-07-09T00:36:43;28.90;36.70
56729;DHT22;42612;52.232;7.560;2023-07-09T00:39:22;28.80;36.40
56729;DHT22;42612;52.232;7.560;2023-07-09T00:41:49;28.80;36.80
56729;DHT22;42612;52.232;7.560;2023-07-09T00:44:32;28.80;36.60
56729;DHT22;42612;52.232;7.560;2023-07-09T00:49:33;28.70;36.80
56729;DHT22;42612;52.232;7.560;2023-07-09T00:52:05;28.60;37.10
56729;DHT22;42612;52.232;7.560;2023-07-09T00:54:45;28.60;37.00
56729;DHT22;42612;52.232;7.560;2023-07-09T00:57:13;28.60;36.90
56729;DHT22;42612;52.232;7.560;2023-07-09T00:59:45;28.60;36.70
56729;DHT22;42612;52.232;7.560;2023-07-09T01:02:14;28.50;36.90
56729;DHT22;42612;52.232;7.560;2023-07-09T01:04:40;28.50;36.90
56729;DHT22;42612;52.232;7.560;2023-07-09T01:07:07;28.50;36.90
56729;DHT22;42612;52.232;7.560;2023-07-09T01:09:34;28.40;37.10
56729;DHT22;42612;52.232;7.560;2023-07-09T01:12:08;28.40;38.10
56729;DHT22;42612;52.232;7.560;2023-07-09T01:14:35;28.40;37.90
56729;DHT22;42612;52.232;7.560;2023-07-09T01:17:03;28.30;38.10
56729;DHT22;42612;52.232;7.560;2023-07-09T01:19:37;28.30;38.20
56729;DHT22;42612;52.232;7.560;2023-07-09T01:22:09;28.20;38.70
56729;DHT22;42612;52.232;7.560;2023-07-09T01:24:59;28.20;38.00
56729;DHT22;42612;52.232;7.560;2023-07-09T01:27:37;28.10;38.30
56729;DHT22;42612;52.232;7.560;2023-07-09T01:30:08;28.10;38.20
56729;DHT22;42612;52.232;7.560;2023-07-09T01:32:42;28.00;38.30
56729;DHT22;42612;52.232;7.560;2023-07-09T01:35:12;28.00;38.20
56729;DHT22;42612;52.232;7.560;2023-07-09T01:37:40;27.90;38.40
56729;DHT22;42612;52.232;7.560;2023-07-09T01:40:08;27.90;38.70
56729;DHT22;42612;52.232;7.560;2023-07-09T01:42:35;27.90;39.20
56729;DHT22;42612;52.232;7.560;2023-07-09T01:45:04;27.80;39.40
56729;DHT22;42612;52.232;7.560;2023-07-09T01:47:31;27.80;39.50
56729;DHT22;42612;52.232;7.560;2023-07-09T01:49:57;27.80;39.60
56729;DHT22;42612;52.232;7.560;2023-07-09T01:52:29;27.70;39.20
56729;DHT22;42612;52.232;7.560;2023-07-09T01:54:57;27.70;39.40
56729;DHT22;42612;52.232;7.560;2023-07-09T01:57:27;27.70;39.10
56729;DHT22;42612;52.232;7.560;2023-07-09T02:00:03;27.70;39.20
56729;DHT22;42612;52.232;7.560;2023-07-09T02:02:31;27.70;39.40
56729;DHT22;42612;52.232;7.560;2023-07-09T02:04:58;27.60;39.30
56729;DHT22;42612;52.232;7.560;2023-07-09T02:07:24;27.60;39.50
56729;DHT22;42612;52.232;7.560;2023-07-09T02:09:51;27.60;39.50
56729;DHT22;42612;52.232;7.560;2023-07-09T02:12:17;27.50;39.50
56729;DHT22;42612;52.232;7.560;2023-07-09T02:14:44;27.50;39.50
56729;DHT22;42612;52.232;7.560;2023-07-09T02:17:12;27.50;39.60
56729;DHT22;42612;52.232;7.560;2023-07-09T02:19:39;27.40;39.70
56729;DHT22;42612;52.232;7.560;2023-07-09T02:22:06;27.40;39.80
56729;DHT22;42612;52.232;7.560;2023-07-09T02:24:32;27.40;40.10
56729;DHT22;42612;52.232;7.560;2023-07-09T02:26:59;27.30;40.20
56729;DHT22;42612;52.232;7.560;2023-07-09T02:29:28;27.30;40.20
56729;DHT22;42612;52.232;7.560;2023-07-09T02:31:56;27.30;40.70
56729;DHT22;42612;52.232;7.560;2023-07-09T02:34:25;27.30;41.30
56729;DHT22;42612;52.232;7.560;2023-07-09T02:36:55;27.20;41.10
56729;DHT22;42612;52.232;7.560;2023-07-09T02:39:22;27.20;41.30
56729;DHT22;42612;52.232;7.560;2023-07-09T02:41:49;27.10;40.70
56729;DHT22;42612;52.232;7.560;2023-07-09T02:44:15;27.10;40.90
56729;DHT22;42612;52.232;7.560;2023-07-09T02:46:41;27.10;41.10
56729;DHT22;42612;52.232;7.560;2023-07-09T02:49:13;27.10;41.50
56729;DHT22;42612;52.232;7.560;2023-07-09T02:51:39;27.00;42.30
56729;DHT22;42612;52.232;7.560;2023-07-09T02:54:06;27.00;41.70
56729;DHT22;42612;52.232;7.560;2023-07-09T02:56:32;27.00;41.70
56729;DHT22;42612;52.232;7.560;2023-07-09T02:58:58;27.00;41.90
56729;DHT22;42612;52.232;7.560;2023-07-09T03:01:24;26.90;42.10
56729;DHT22;42612;52.232;7.560;2023-07-09T03:03:53;26.90;42.40
56729;DHT22;42612;52.232;7.560;2023-07-09T03:06:24;26.90;42.50
56729;DHT22;42612;52.232;7.560;2023-07-09T03:08:50;26.80;42.80
56729;DHT22;42612;52.232;7.560;2023-07-09T03:11:17;26.80;42.50
56729;DHT22;42612;52.232;7.560;2023-07-09T03:13:44;26.70;42.50
56729;DHT22;42612;52.232;7.560;2023-07-09T03:16:11;26.70;42.80
56729;DHT22;42612;52.232;7.560;2023-07-09T03:18:37;26.60;42.80
56729;DHT22;42612;52.232;7.560;2023-07-09T03:21:02;26.60;42.30
56729;DHT22;42612;52.232;7.560;2023-07-09T03:23:28;26.60;42.20
56729;DHT22;42612;52.232;7.560;2023-07-09T03:25:55;26.50;42.40
56729;DHT22;42612;52.232;7.560;2023-07-09T03:28:21;26.50;42.80
56729;DHT22;42612;52.232;7.560;2023-07-09T03:30:48;26.50;42.90
56729;DHT22;42612;52.232;7.560;2023-07-09T03:33:16;26.50;43.10
56729;DHT22;42612;52.232;7.560;2023-07-09T03:35:42;26.40;43.10
56729;DHT22;42612;52.232;7.560;2023-07-09T03:38:09;26.40;42.80
56729;DHT22;42612;52.232;7.560;2023-07-09T03:40:36;26.40;42.70
56729;DHT22;42612;52.232;7.560;2023-07-09T03:43:03;26.30;42.60
56729;DHT22;42612;52.232;7.560;2023-07-09T03:45:30;26.30;42.70
56729;DHT22;42612;52.232;7.560;2023-07-09T03:47:58;26.30;42.60
56729;DHT22;42612;52.232;7.560;2023-07-09T03:50:23;26.30;42.40
56729;DHT22;42612;52.232;7.560;2023-07-09T03:52:49;26.30;42.20
56729;DHT22;42612;52.232;7.560;2023-07-09T03:55:15;26.30;42.30
56729;DHT22;42612;52.232;7.560;2023-07-09T03:57:40;26.30;42.60
56729;DHT22;42612;52.232;7.560;2023-07-09T04:00:07;26.30;42.90
56729;DHT22;42612;52.232;7.560;2023-07-09T04:02:37;26.30;43.00
56729;DHT22;42612;52.232;7.560;2023-07-09T04:05:04;26.30;43.10
56729;DHT22;42612;52.232;7.560;2023-07-09T04:07:30;26.30;43.10
56729;DHT22;42612;52.232;7.560;2023-07-09T04:09:56;26.30;43.10
56729;DHT22;42612;52.232;7.560;2023-07-09T04:12:22;26.30;43.10
56729;DHT22;42612;52.232;7.560;2023-07-09T04:14:47;26.30;42.90
56729;DHT22;42612;52.232;7.560;2023-07-09T04:17:13;26.30;43.10
56729;DHT22;42612;52.232;7.560;2023-07-09T04:19:39;26.30;43.20
56729;DHT22;42612;52.232;7.560;2023-07-09T04:22:04;26.20;43.20
56729;DHT22;42612;52.232;7.560;2023-07-09T04:24:31;26.20;43.10
56729;DHT22;42612;52.232;7.560;2023-07-09T04:26:58;26.20;43.40
56729;DHT22;42612;52.232;7.560;2023-07-09T04:29:29;26.20;43.60
56729;DHT22;42612;52.232;7.560;2023-07-09T04:31:55;26.20;43.80
56729;DHT22;42612;52.232;7.560;2023-07-09T04:34:21;26.20;43.80
56729;DHT22;42612;52.232;7.560;2023-07-09T04:36:47;26.20;43.80
56729;DHT22;42612;52.232;7.560;2023-07-09T04:39:13;26.20;43.90
56729;DHT22;42612;52.232;7.560;2023-07-09T04:41:39;26.20;44.20
56729;DHT22;42612;52.232;7.560;2023-07-09T04:44:04;26.10;44.20
56729;DHT22;42612;52.232;7.560;2023-07-09T04:46:30;26.10;44.20
56729;DHT22;42612;52.232;7.560;2023-07-09T04:48:56;26.10;44.20
56729;DHT22;42612;52.232;7.560;2023-07-09T04:51:21;26.10;44.30
56729;DHT22;42612;52.232;7.560;2023-07-09T04:53:47;26.10;44.70
56729;DHT22;42612;52.232;7.560;2023-07-09T04:56:17;26.10;44.70
56729;DHT22;42612;52.232;7.560;2023-07-09T04:58:43;26.20;45.00
56729;DHT22;42612;52.232;7.560;2023-07-09T05:01:08;26.20;45.00
56729;DHT22;42612;52.232;7.560;2023-07-09T05:03:34;26.20;44.90
56729;DHT22;42612;52.232;7.560;2023-07-09T05:06:00;26.20;44.90
56729;DHT22;42612;52.232;7.560;2023-07-09T05:08:26;26.20;44.70
56729;DHT22;42612;52.232;7.560;2023-07-09T05:10:52;26.20;44.50
56729;DHT22;42612;52.232;7.560;2023-07-09T05:13:18;26.20;44.30
56729;DHT22;42612;52.232;7.560;2023-07-09T05:15:46;26.20;44.50
56729;DHT22;42612;52.232;7.560;2023-07-09T05:18:13;26.30;44.90
56729;DHT22;42612;52.232;7.560;2023-07-09T05:20:40;26.30;44.90
56729;DHT22;42612;52.232;7.560;2023-07-09T05:23:10;26.30;45.00
56729;DHT22;42612;52.232;7.560;2023-07-09T05:25:36;26.30;44.80
56729;DHT22;42612;52.232;7.560;2023-07-09T05:28:02;26.30;44.70
56729;DHT22;42612;52.232;7.560;2023-07-09T05:30:29;26.40;44.80
56729;DHT22;42612;52.232;7.560;2023-07-09T05:32:55;26.40;44.90
56729;DHT22;42612;52.232;7.560;2023-07-09T05:35:24;26.50;45.10
56729;DHT22;42612;52.232;7.560;2023-07-09T05:37:52;26.40;45.00
56729;DHT22;42612;52.232;7.560;2023-07-09T05:40:18;26.50;44.90
56729;DHT22;42612;52.232;7.560;2023-07-09T05:42:43;26.50;44.60
56729;DHT22;42612;52.232;7.560;2023-07-09T05:45:10;26.60;44.90
56729;DHT22;42612;52.232;7.560;2023-07-09T05:47:36;26.60;45.10
56729;DHT22;42612;52.232;7.560;2023-07-09T05:50:02;26.60;45.00
56729;DHT22;42612;52.232;7.560;2023-07-09T05:52:29;26.70;44.90
56729;DHT22;42612;52.232;7.560;2023-07-09T05:54:55;26.70;44.80
56729;DHT22;42612;52.232;7.560;2023-07-09T05:57:21;26.70;44.70
56729;DHT22;42612;52.232;7.560;2023-07-09T05:59:47;26.80;44.90
56729;DHT22;42612;52.232;7.560;2023-07-09T06:02:15;26.80;45.00
56729;DHT22;42612;52.232;7.560;2023-07-09T06:04:42;26.90;45.00
56729;DHT22;42612;52.232;7.560;2023-07-09T06:07:12;26.90;45.00
56729;DHT22;42612;52.232;7.560;2023-07-09T06:09:39;26.90;45.10
56729;DHT22;42612;52.232;7.560;2023-07-09T06:12:06;26.90;44.90
56729;DHT22;42612;52.232;7.560;2023-07-09T06:14:32;27.00;45.00
56729;DHT22;42612;52.232;7.560;2023-07-09T06:16:59;27.00;45.00
56729;DHT22;42612;52.232;7.560;2023-07-09T06:19:25;27.10;45.20
56729;DHT22;42612;52.232;7.560;2023-07-09T06:21:51;27.10;45.10
56729;DHT22;42612;52.232;7.560;2023-07-09T06:24:17;27.10;45.10
56729;DHT22;42612;52.232;7.560;2023-07-09T06:26:43;27.20;45.30
56729;DHT22;42612;52.232;7.560;2023-07-09T06:29:09;27.20;45.40
56729;DHT22;42612;52.232;7.560;2023-07-09T06:31:35;27.20;45.40
56729;DHT22;42612;52.232;7.560;2023-07-09T06:34:02;27.30;45.40
56729;DHT22;42612;52.232;7.560;2023-07-09T06:36:29;27.40;45.50
56729;DHT22;42612;52.232;7.560;2023-07-09T06:38:54;27.40;45.50
56729;DHT22;42612;52.232;7.560;2023-07-09T06:41:20;27.40;45.30
56729;DHT22;42612;52.232;7.560;2023-07-09T06:43:46;27.40;45.30
56729;DHT22;42612;52.232;7.560;2023-07-09T06:46:13;27.50;45.20
56729;DHT22;42612;52.232;7.560;2023-07-09T06:48:40;27.50;45.30
56729;DHT22;42612;52.232;7.560;2023-07-09T06:51:06;27.60;45.30
56729;DHT22;42612;52.232;7.560;2023-07-09T06:53:32;27.60;45.40
56729;DHT22;42612;52.232;7.560;2023-07-09T06:55:58;27.70;45.00
56729;DHT22;42612;52.232;7.560;2023-07-09T06:58:26;27.70;44.90
56729;DHT22;42612;52.232;7.560;2023-07-09T07:00:54;27.70;44.90
56729;DHT22;42612;52.232;7.560;2023-07-09T07:03:20;27.80;45.00
56729;DHT22;42612;52.232;7.560;2023-07-09T07:05:48;27.90;44.80
56729;DHT22;42612;52.232;7.560;2023-07-09T07:08:16;27.90;44.80
56729;DHT22;42612;52.232;7.560;2023-07-09T07:10:44;27.90;44.80
56729;DHT22;42612;52.232;7.560;2023-07-09T07:13:12;27.90;45.10
56729;DHT22;42612;52.232;7.560;2023-07-09T07:15:38;28.00;44.90
56729;DHT22;42612;52.232;7.560;2023-07-09T07:18:04;28.10;44.90
56729;DHT22;42612;52.232;7.560;2023-07-09T07:20:31;28.10;44.70
56729;DHT22;42612;52.232;7.560;2023-07-09T07:22:57;28.10;44.50
56729;DHT22;42612;52.232;7.560;2023-07-09T07:25:23;28.20;44.50
56729;DHT22;42612;52.232;7.560;2023-07-09T07:27:50;28.20;44.70
56729;DHT22;42612;52.232;7.560;2023-07-09T07:30:16;28.30;44.60
56729;DHT22;42612;52.232;7.560;2023-07-09T07:32:44;28.30;44.70
56729;DHT22;42612;52.232;7.560;2023-07-09T07:35:11;28.40;44.80
56729;DHT22;42612;52.232;7.560;2023-07-09T07:37:39;28.40;44.80
56729;DHT22;42612;52.232;7.560;2023-07-09T07:40:07;28.50;44.70
56729;DHT22;42612;52.232;7.560;2023-07-09T07:42:34;28.50;44.70
56729;DHT22;42612;52.232;7.560;2023-07-09T07:45:00;28.60;44.80
56729;DHT22;42612;52.232;7.560;2023-07-09T07:47:26;28.60;44.70
56729;DHT22;42612;52.232;7.560;2023-07-09T07:49:53;28.60;44.80
56729;DHT22;42612;52.232;7.560;2023-07-09T07:52:18;28.70;44.80
56729;DHT22;42612;52.232;7.560;2023-07-09T07:54:44;28.70;44.90
56729;DHT22;42612;52.232;7.560;2023-07-09T07:57:10;28.80;45.00
56729;DHT22;42612;52.232;7.560;2023-07-09T07:59:37;28.80;44.70
56729;DHT22;42612;52.232;7.560;2023-07-09T08:02:04;28.90;44.70
56729;DHT22;42612;52.232;7.560;2023-07-09T08:04:32;28.90;44.80
56729;DHT22;42612;52.232;7.560;2023-07-09T08:06:58;29.00;44.80
56729;DHT22;42612;52.232;7.560;2023-07-09T08:09:24;29.10;44.90
56729;DHT22;42612;52.232;7.560;2023-07-09T08:11:50;29.10;44.70
56729;DHT22;42612;52.232;7.560;2023-07-09T08:14:16;29.20;44.90
56729;DHT22;42612;52.232;7.560;2023-07-09T08:16:41;29.20;44.90
56729;DHT22;42612;52.232;7.560;2023-07-09T08:19:07;29.30;44.80
56729;DHT22;42612;52.232;7.560;2023-07-09T08:21:33;29.30;44.80
56729;DHT22;42612;52.232;7.560;2023-07-09T08:23:59;29.40;44.80
56729;DHT22;42612;52.232;7.560;2023-07-09T08:26:25;29.50;44.70
56729;DHT22;42612;52.232;7.560;2023-07-09T08:28:51;29.50;44.60
56729;DHT22;42612;52.232;7.560;2023-07-09T08:31:17;29.50;44.50
56729;DHT22;42612;52.232;7.560;2023-07-09T08:33:43;29.60;44.60
56729;DHT22;42612;52.232;7.560;2023-07-09T08:36:09;29.70;44.70
56729;DHT22;42612;52.232;7.560;2023-07-09T08:38:34;29.70;44.50
56729;DHT22;42612;52.232;7.560;2023-07-09T08:46:43;29.90;44.70
56729;DHT22;42612;52.232;7.560;2023-07-09T08:52:41;30.10;44.00
56729;DHT22;42612;52.232;7.560;2023-07-09T08:55:21;30.20;43.70
56729;DHT22;42612;52.232;7.560;2023-07-09T08:58:04;30.30;43.60
56729;DHT22;42612;52.232;7.560;2023-07-09T09:00:45;30.30;43.40
56729;DHT22;42612;52.232;7.560;2023-07-09T09:03:44;30.40;43.70
56729;DHT22;42612;52.232;7.560;2023-07-09T09:06:17;30.40;43.60
56729;DHT22;42612;52.232;7.560;2023-07-09T09:14:37;30.60;43.40
56729;DHT22;42612;52.232;7.560;2023-07-09T09:17:14;30.70;43.40
56729;DHT22;42612;52.232;7.560;2023-07-09T09:20:04;30.70;43.10
56729;DHT22;42612;52.232;7.560;2023-07-09T09:25:37;30.90;43.80
56729;DHT22;42612;52.232;7.560;2023-07-09T09:28:07;31.00;44.20
56729;DHT22;42612;52.232;7.560;2023-07-09T09:30:33;31.00;44.40
56729;DHT22;42612;52.232;7.560;2023-07-09T09:33:00;31.10;43.50
56729;DHT22;42612;52.232;7.560;2023-07-09T09:35:31;31.20;43.30
56729;DHT22;42612;52.232;7.560;2023-07-09T09:37:59;31.20;43.50
56729;DHT22;42612;52.232;7.560;2023-07-09T09:40:28;31.30;43.20
56729;DHT22;42612;52.232;7.560;2023-07-09T09:42:58;31.40;43.60
56729;DHT22;42612;52.232;7.560;2023-07-09T09:45:38;31.50;43.50
56729;DHT22;42612;52.232;7.560;2023-07-09T09:48:27;31.60;43.00
56729;DHT22;42612;52.232;7.560;2023-07-09T09:50:55;31.70;42.60
56729;DHT22;42612;52.232;7.560;2023-07-09T09:53:28;31.80;42.80
56729;DHT22;42612;52.232;7.560;2023-07-09T09:55:56;31.90;42.30
56729;DHT22;42612;52.232;7.560;2023-07-09T09:58:29;31.90;42.30
56729;DHT22;42612;52.232;7.560;2023-07-09T10:00:57;32.00;42.10
56729;DHT22;42612;52.232;7.560;2023-07-09T10:03:36;32.00;42.00
56729;DHT22;42612;52.232;7.560;2023-07-09T10:06:07;32.10;41.50
56729;DHT22;42612;52.232;7.560;2023-07-09T10:11:28;32.30;41.40
56729;DHT22;42612;52.232;7.560;2023-07-09T10:14:56;32.40;41.40
56729;DHT22;42612;52.232;7.560;2023-07-09T10:20:21;32.60;41.40
56729;DHT22;42612;52.232;7.560;2023-07-09T10:34:38;33.00;40.30
56729;DHT22;42612;52.232;7.560;2023-07-09T10:40:15;33.20;39.70
56729;DHT22;42612;52.232;7.560;2023-07-09T10:42:47;33.30;39.60
56729;DHT22;42612;52.232;7.560;2023-07-09T10:45:26;33.40;39.70
56729;DHT22;42612;52.232;7.560;2023-07-09T10:48:02;33.40;39.20
56729;DHT22;42612;52.232;7.560;2023-07-09T10:50:42;33.50;38.20
56729;DHT22;42612;52.232;7.560;2023-07-09T10:53:16;33.60;37.80
56729;DHT22;42612;52.232;7.560;2023-07-09T10:55:53;33.60;38.60
56729;DHT22;42612;52.232;7.560;2023-07-09T11:01:58;33.80;38.50
56729;DHT22;42612;52.232;7.560;2023-07-09T11:04:43;33.90;39.50
56729;DHT22;42612;52.232;7.560;2023-07-09T11:07:14;34.00;38.80
56729;DHT22;42612;52.232;7.560;2023-07-09T11:09:46;34.10;39.10
56729;DHT22;42612;52.232;7.560;2023-07-09T11:12:19;34.20;38.30
56729;DHT22;42612;52.232;7.560;2023-07-09T11:14:55;34.20;37.70
56729;DHT22;42612;52.232;7.560;2023-07-09T11:17:27;34.30;38.30
56729;DHT22;42612;52.232;7.560;2023-07-09T11:19:56;34.40;37.90
56729;DHT22;42612;52.232;7.560;2023-07-09T11:22:36;34.50;37.80
56729;DHT22;42612;52.232;7.560;2023-07-09T11:25:09;34.60;37.00
56729;DHT22;42612;52.232;7.560;2023-07-09T11:27:54;34.60;37.30
56729;DHT22;42612;52.232;7.560;2023-07-09T11:30:29;34.80;37.20
56729;DHT22;42612;52.232;7.560;2023-07-09T11:32:59;34.80;37.10
56729;DHT22;42612;52.232;7.560;2023-07-09T11:35:29;34.90;37.20
56729;DHT22;42612;52.232;7.560;2023-07-09T11:38:23;35.00;36.90
56729;DHT22;42612;52.232;7.560;2023-07-09T11:40:51;35.10;36.20
56729;DHT22;42612;52.232;7.560;2023-07-09T11:43:47;35.10;36.40
56729;DHT22;42612;52.232;7.560;2023-07-09T11:46:18;35.20;36.60
56729;DHT22;42612;52.232;7.560;2023-07-09T11:48:48;35.20;37.20
56729;DHT22;42612;52.232;7.560;2023-07-09T11:51:18;35.30;36.90
56729;DHT22;42612;52.232;7.560;2023-07-09T11:53:52;35.40;36.40
56729;DHT22;42612;52.232;7.560;2023-07-09T11:56:23;35.40;36.30
56729;DHT22;42612;52.232;7.560;2023-07-09T11:58:52;35.50;36.20
56729;DHT22;42612;52.232;7.560;2023-07-09T12:01:22;35.60;36.60
56729;DHT22;42612;52.232;7.560;2023-07-09T12:03:51;35.70;36.60
56729;DHT22;42612;52.232;7.560;2023-07-09T12:06:27;35.80;36.00
56729;DHT22;42612;52.232;7.560;2023-07-09T12:08:54;35.80;35.40
56729;DHT22;42612;52.232;7.560;2023-07-09T12:11:32;35.90;35.80
56729;DHT22;42612;52.232;7.560;2023-07-09T12:14:05;36.00;35.00
56729;DHT22;42612;52.232;7.560;2023-07-09T12:16:40;36.10;36.00
56729;DHT22;42612;52.232;7.560;2023-07-09T12:19:08;36.20;35.20
56729;DHT22;42612;52.232;7.560;2023-07-09T12:21:57;36.20;35.30
56729;DHT22;42612;52.232;7.560;2023-07-09T12:24:34;36.30;35.10
56729;DHT22;42612;52.232;7.560;2023-07-09T12:29:46;36.40;35.00
56729;DHT22;42612;52.232;7.560;2023-07-09T12:32:14;36.40;34.90
56729;DHT22;42612;52.232;7.560;2023-07-09T12:34:41;36.50;34.60
56729;DHT22;42612;52.232;7.560;2023-07-09T12:37:12;36.50;34.70
56729;DHT22;42612;52.232;7.560;2023-07-09T12:39:39;36.50;34.80
56729;DHT22;42612;52.232;7.560;2023-07-09T12:42:09;36.50;34.70
56729;DHT22;42612;52.232;7.560;2023-07-09T12:44:58;36.60;34.60
56729;DHT22;42612;52.232;7.560;2023-07-09T12:47:24;36.60;34.50
56729;DHT22;42612;52.232;7.560;2023-07-09T12:49:51;36.70;34.40
56729;DHT22;42612;52.232;7.560;2023-07-09T12:52:22;36.80;34.50
56729;DHT22;42612;52.232;7.560;2023-07-09T12:55:01;36.80;33.90
56729;DHT22;42612;52.232;7.560;2023-07-09T12:57:28;36.90;33.80
56729;DHT22;42612;52.232;7.560;2023-07-09T12:59:56;36.90;33.90
56729;DHT22;42612;52.232;7.560;2023-07-09T13:02:26;37.00;33.80
56729;DHT22;42612;52.232;7.560;2023-07-09T13:05:05;37.10;34.10
56729;DHT22;42612;52.232;7.560;2023-07-09T13:07:39;37.10;33.00
56729;DHT22;42612;52.232;7.560;2023-07-09T13:12:52;37.20;33.10
56729;DHT22;42612;52.232;7.560;2023-07-09T13:15:30;37.30;33.50
56729;DHT22;42612;52.232;7.560;2023-07-09T13:18:05;37.30;32.70
56729;DHT22;42612;52.232;7.560;2023-07-09T13:20:35;37.30;33.40
56729;DHT22;42612;52.232;7.560;2023-07-09T13:23:13;37.40;33.70
56729;DHT22;42612;52.232;7.560;2023-07-09T13:25:43;37.40;33.40
56729;DHT22;42612;52.232;7.560;2023-07-09T13:28:30;37.50;33.10
56729;DHT22;42612;52.232;7.560;2023-07-09T13:30:59;37.60;32.60
56729;DHT22;42612;52.232;7.560;2023-07-09T13:33:27;37.60;32.70
56729;DHT22;42612;52.232;7.560;2023-07-09T13:35:53;37.60;32.70
56729;DHT22;42612;52.232;7.560;2023-07-09T13:38:21;37.60;32.60
56729;DHT22;42612;52.232;7.560;2023-07-09T13:40:56;37.60;32.50
56729;DHT22;42612;52.232;7.560;2023-07-09T13:43:28;37.60;32.70
56729;DHT22;42612;52.232;7.560;2023-07-09T13:45:56;37.60;32.50
56729;DHT22;42612;52.232;7.560;2023-07-09T13:48:23;37.60;32.70
56729;DHT22;42612;52.232;7.560;2023-07-09T13:50:51;37.60;32.60
56729;DHT22;42612;52.232;7.560;2023-07-09T13:53:21;37.60;32.80
56729;DHT22;42612;52.232;7.560;2023-07-09T13:55:48;37.60;32.70
56729;DHT22;42612;52.232;7.560;2023-07-09T13:58:17;37.60;32.70
56729;DHT22;42612;52.232;7.560;2023-07-09T14:00:45;37.60;32.70
56729;DHT22;42612;52.232;7.560;2023-07-09T14:03:21;37.60;32.60
56729;DHT22;42612;52.232;7.560;2023-07-09T14:05:49;37.60;32.50
56729;DHT22;42612;52.232;7.560;2023-07-09T14:08:15;37.60;32.30
56729;DHT22;42612;52.232;7.560;2023-07-09T14:10:42;37.60;32.40
56729;DHT22;42612;52.232;7.560;2023-07-09T14:13:16;37.60;32.30
56729;DHT22;42612;52.232;7.560;2023-07-09T14:15:43;37.60;31.80
56729;DHT22;42612;52.232;7.560;2023-07-09T14:18:11;37.60;32.40
56729;DHT22;42612;52.232;7.560;2023-07-09T14:20:42;37.60;33.30
56729;DHT22;42612;52.232;7.560;2023-07-09T14:23:15;37.60;33.30
56729;DHT22;42612;52.232;7.560;2023-07-09T14:25:43;37.60;33.30
56729;DHT22;42612;52.232;7.560;2023-07-09T14:28:20;37.50;33.50
56729;DHT22;42612;52.232;7.560;2023-07-09T14:30:48;37.50;33.10
56729;DHT22;42612;52.232;7.560;2023-07-09T14:33:18;37.50;32.80
56729;DHT22;42612;52.232;7.560;2023-07-09T14:35:45;37.60;33.00
56729;DHT22;42612;52.232;7.560;2023-07-09T14:40:46;37.60;33.20
56729;DHT22;42612;52.232;7.560;2023-07-09T14:43:13;37.60;33.20
56729;DHT22;42612;52.232;7.560;2023-07-09T14:45:40;37.60;33.20
56729;DHT22;42612;52.232;7.560;2023-07-09T14:48:17;37.50;33.00
56729;DHT22;42612;52.232;7.560;2023-07-09T14:50:44;37.50;33.00
56729;DHT22;42612;52.232;7.560;2023-07-09T14:53:30;37.50;33.10
56729;DHT22;42612;52.232;7.560;2023-07-09T14:55:56;37.40;33.10
56729;DHT22;42612;52.232;7.560;2023-07-09T14:58:23;37.40;33.20
56729;DHT22;42612;52.232;7.560;2023-07-09T15:00:50;37.30;33.10
56729;DHT22;42612;52.232;7.560;2023-07-09T15:03:21;37.20;33.30
56729;DHT22;42612;52.232;7.560;2023-07-09T15:05:49;37.10;33.60
56729;DHT22;42612;52.232;7.560;2023-07-09T15:08:21;37.00;32.90
56729;DHT22;42612;52.232;7.560;2023-07-09T15:10:49;36.90;32.90
56729;DHT22;42612;52.232;7.560;2023-07-09T15:13:18;36.80;33.20
56729;DHT22;42612;52.232;7.560;2023-07-09T15:15:45;36.80;32.90
56729;DHT22;42612;52.232;7.560;2023-07-09T15:18:13;36.70;33.40
56729;DHT22;42612;52.232;7.560;2023-07-09T15:20:43;36.70;33.80
56729;DHT22;42612;52.232;7.560;2023-07-09T15:23:13;36.60;34.10
56729;DHT22;42612;52.232;7.560;2023-07-09T15:25:39;36.50;33.80
56729;DHT22;42612;52.232;7.560;2023-07-09T15:28:05;36.40;33.70
56729;DHT22;42612;52.232;7.560;2023-07-09T15:30:31;36.40;34.30
56729;DHT22;42612;52.232;7.560;2023-07-09T15:32:59;36.30;34.90
56729;DHT22;42612;52.232;7.560;2023-07-09T15:35:31;36.20;35.20
56729;DHT22;42612;52.232;7.560;2023-07-09T15:37:59;36.10;35.40
56729;DHT22;42612;52.232;7.560;2023-07-09T15:40:28;36.00;35.20
56729;DHT22;42612;52.232;7.560;2023-07-09T15:43:00;36.00;35.90
56729;DHT22;42612;52.232;7.560;2023-07-09T15:45:30;35.90;36.40
56729;DHT22;42612;52.232;7.560;2023-07-09T15:47:56;35.80;35.80
56729;DHT22;42612;52.232;7.560;2023-07-09T15:50:25;35.70;35.70
56729;DHT22;42612;52.232;7.560;2023-07-09T15:52:52;35.60;35.60
56729;DHT22;42612;52.232;7.560;2023-07-09T15:55:21;35.60;35.50
56729;DHT22;42612;52.232;7.560;2023-07-09T15:57:51;35.50;35.60
56729;DHT22;42612;52.232;7.560;2023-07-09T16:00:21;35.40;36.00
56729;DHT22;42612;52.232;7.560;2023-07-09T16:02:50;35.40;36.50
56729;DHT22;42612;52.232;7.560;2023-07-09T16:05:25;35.30;36.10
56729;DHT22;42612;52.232;7.560;2023-07-09T16:07:54;35.20;36.20
56729;DHT22;42612;52.232;7.560;2023-07-09T16:10:23;35.20;37.00
56729;DHT22;42612;52.232;7.560;2023-07-09T16:12:51;35.10;37.40
56729;DHT22;42612;52.232;7.560;2023-07-09T16:15:18;35.00;37.80
56729;DHT22;42612;52.232;7.560;2023-07-09T16:17:46;34.90;38.80
56729;DHT22;42612;52.232;7.560;2023-07-09T16:20:15;34.90;38.20
56729;DHT22;42612;52.232;7.560;2023-07-09T16:22:50;34.60;37.90
56729;DHT22;42612;52.232;7.560;2023-07-09T16:25:19;34.20;38.00
56729;DHT22;42612;52.232;7.560;2023-07-09T16:27:47;33.60;38.50
56729;DHT22;42612;52.232;7.560;2023-07-09T16:30:19;33.00;38.90
56729;DHT22;42612;52.232;7.560;2023-07-09T16:32:50;32.50;40.50
56729;DHT22;42612;52.232;7.560;2023-07-09T16:35:18;31.90;41.70
56729;DHT22;42612;52.232;7.560;2023-07-09T16:37:47;31.30;42.50